Location Sebastian, FL, US

ob KFLSEBAS1 252210Z AUTO 11000G10KT CLR 31/25 A3007 RMK SLPNO 

2017.06.25 2210 UTC
Wind from the ESE (111 degrees) at Calm MPH ( KT) gusting to 12.0 MPH (10 KT)
Visibility    Mile(s)
Sky Conditions  clear
Temperature 88.60 F (31 C)
Dew Point 77.13 F (25 C)
Relative Humidity 69%
Pressure   30.07 in. Hg (1018 hPa)
Rain  0.00 in.
Daily Rain  in.

Station Name  www.kflsebas1.com
Longitude, Latitude  -80.48, 27.8
Elevation 23
Station URL www.kflsebas1.com
Software Type VWS V15.00